SULAYMANIYAH INTERNATIONAL AIRPORT
  • SulyAir
  • SulyAir
1 1
Arrival

ArrivalsMore >>

Departure

DeparturesMore >>

TAF

TAF ORSU 221130Z 2212/2312 25008KT CAVOK
BECMG 2216/2218 32006KT 8000 NSC
BECMG 2308/2310 VRB04KT 9999 FEW045 SCT080=

METARs

METAR ORSU 221400Z 17003KT CAVOK 13/M06 Q1023=